Time;durP1;ratioP1;P1;durP2;ratioP2;P2;SDS_P1;SDS_P2;PMS_P1;PMS_P2;Temp;Humidity;BMP_temperature;BMP_pressure;BME280_temperature;BME280_humidity;BME280_pressure;Samples;Min_cycle;Max_cycle;Signal;HPM_P1;HPM_P2
2021/03/28 00:00:19;;;;;;;2.65;1.02;;;;;;;5.79;72.20;100602.41;2021479;80;20319;-78
2021/03/28 00:03:56;;;;;;;3.86;0.94;;;;;;;5.78;72.64;100598.06;2014093;80;20338;-79
2021/03/28 00:07:02;;;;;;;7.06;1.81;;;;;;;5.82;72.55;100599.06;2011330;80;20359;-84
2021/03/28 00:10:09;;;;;;;5.60;2.64;;;;;;;5.84;72.42;100607.72;2007495;80;20526;-79
2021/03/28 00:13:22;;;;;;;6.80;2.61;;;;;;;5.83;71.77;100596.53;2006015;80;20329;-79
2021/03/28 00:16:29;;;;;;;6.60;3.30;;;;;;;5.86;71.39;100595.75;2009481;77;21077;-79
2021/03/28 00:19:34;;;;;;;8.18;3.49;;;;;;;5.86;71.65;100601.78;2016908;80;20936;-79
2021/03/28 00:22:49;;;;;;;5.97;2.54;;;;;;;5.86;71.33;100601.78;2016363;80;20961;-79
2021/03/28 00:25:54;;;;;;;6.09;1.80;;;;;;;5.91;70.95;100602.81;2017598;80;21162;-79
2021/03/28 00:29:25;;;;;;;6.00;1.99;;;;;;;5.98;69.85;100604.81;2016613;80;20429;-78
2021/03/28 00:35:46;;;;;;;5.89;1.75;;;;;;;6.07;70.31;100592.19;2019017;69;20408;-78
2021/03/28 00:38:54;;;;;;;3.26;1.55;;;;;;;6.10;71.16;100595.72;2012823;80;21137;-77
2021/03/28 00:42:02;;;;;;;3.10;1.24;;;;;;;6.06;71.36;100595.63;2011641;80;20790;-77
2021/03/28 00:45:15;;;;;;;5.93;1.26;;;;;;;6.05;71.71;100595.56;2011542;80;20199;-78
2021/03/28 00:48:31;;;;;;;3.90;1.36;;;;;;;6.06;71.60;100595.63;2016973;80;20317;-78
2021/03/28 00:51:34;;;;;;;5.43;1.29;;;;;;;6.04;71.22;100581.78;2016992;80;20305;-78
2021/03/28 00:54:39;;;;;;;3.97;1.19;;;;;;;6.06;71.16;100592.16;2016573;80;20329;-78
2021/03/28 00:57:44;;;;;;;4.47;1.65;;;;;;;6.06;71.90;100587.88;2017144;80;20399;-79
2021/03/28 01:00:56;;;;;;;4.53;1.15;;;;;;;6.05;71.84;100585.25;2017044;80;20340;-78
2021/03/28 01:04:24;;;;;;;3.17;1.10;;;;;;;6.06;71.80;100594.75;2016366;80;20313;-78
2021/03/28 01:07:56;;;;;;;3.08;1.09;;;;;;;6.05;72.08;100588.72;2017436;80;20349;-78
2021/03/28 01:11:14;;;;;;;3.40;0.98;;;;;;;6.04;72.11;100588.66;2016256;80;20344;-78
2021/03/28 01:14:38;;;;;;;4.47;1.29;;;;;;;6.03;72.09;100585.19;2016591;80;20321;-79
2021/03/28 01:17:53;;;;;;;6.57;1.31;;;;;;;6.05;71.78;100588.72;2016988;80;20364;-78
2021/03/28 01:21:10;;;;;;;5.74;1.36;;;;;;;6.07;72.07;100579.31;2017230;80;20921;-78
2021/03/28 01:24:15;;;;;;;4.60;1.27;;;;;;;6.09;72.31;100576.78;2016943;80;20825;-78
2021/03/28 01:27:30;;;;;;;2.64;1.13;;;;;;;6.11;72.55;100576.88;2017240;80;20371;-77
2021/03/28 01:30:40;;;;;;;4.86;1.88;;;;;;;6.12;72.47;100574.34;2017299;80;20313;-77
2021/03/28 01:33:53;;;;;;;2.89;1.30;;;;;;;6.10;72.24;100577.66;2016872;80;21353;-78
2021/03/28 01:37:09;;;;;;;3.39;1.26;;;;;;;6.05;72.41;100575.81;2017707;80;20351;-78
2021/03/28 01:40:22;;;;;;;3.63;1.36;;;;;;;5.99;72.62;100575.63;2016144;80;21290;-78
2021/03/28 01:43:47;;;;;;;3.26;1.33;;;;;;;5.93;71.92;100575.44;2016690;80;20321;-78
2021/03/28 01:46:59;;;;;;;4.29;1.61;;;;;;;5.89;71.38;100564.91;2016671;80;20297;-78
2021/03/28 01:50:27;;;;;;;6.45;1.41;;;;;;;5.82;71.94;100571.56;2017336;80;20720;-78
2021/03/28 01:54:00;;;;;;;7.06;1.30;;;;;;;5.70;72.31;100564.28;2016473;80;20356;-78
2021/03/28 01:57:40;;;;;;;5.43;1.42;;;;;;;5.58;72.50;100563.91;2016548;80;21177;-78
2021/03/28 02:01:01;;;;;;;4.57;1.11;;;;;;;5.44;72.64;100563.41;2016557;80;20305;-77
2021/03/28 02:04:12;;;;;;;3.60;1.10;;;;;;;5.36;72.99;100574.25;2016375;80;20180;-78
2021/03/28 02:07:46;;;;;;;4.81;1.10;;;;;;;5.22;73.03;100563.50;2017142;80;20369;-79
2021/03/28 02:11:10;;;;;;;3.15;0.94;;;;;;;5.14;73.18;100564.88;2016603;80;20316;-78
2021/03/28 02:14:22;;;;;;;4.19;1.27;;;;;;;5.08;73.42;100565.56;2016664;80;20785;-78
2021/03/28 02:17:32;;;;;;;3.16;0.88;;;;;;;5.02;73.73;100575.59;2016761;80;20368;-78
2021/03/28 02:21:15;;;;;;;3.72;0.79;;;;;;;4.96;73.88;100569.38;2016711;80;20317;-78
2021/03/28 02:24:24;;;;;;;2.53;1.00;;;;;;;4.89;74.00;100575.13;2016466;80;20343;-78
2021/03/28 02:27:49;;;;;;;4.31;1.85;;;;;;;4.86;74.38;100568.16;2016943;80;20325;-78
2021/03/28 02:30:59;;;;;;;4.29;0.89;;;;;;;4.82;74.80;100568.84;2016059;80;20344;-77
2021/03/28 02:34:12;;;;;;;4.91;0.79;;;;;;;4.79;74.84;100573.88;2016940;80;20835;-78
2021/03/28 02:37:16;;;;;;;4.18;1.17;;;;;;;4.75;74.81;100567.75;2016274;80;20309;-77
2021/03/28 02:40:57;;;;;;;3.97;0.70;;;;;;;4.71;74.89;100572.72;2016685;80;20345;-78
2021/03/28 02:44:32;;;;;;;7.01;1.19;;;;;;;4.66;74.84;100576.81;2016060;80;20337;-78
2021/03/28 02:48:14;;;;;;;2.36;0.60;;;;;;;4.62;74.56;100567.22;2016510;80;20896;-80
2021/03/28 02:51:28;;;;;;;2.01;0.70;;;;;;;4.53;74.98;100572.91;2016442;80;20321;-78
2021/03/28 02:54:58;;;;;;;3.34;0.80;;;;;;;4.45;75.23;100569.13;2016915;80;20345;-78
2021/03/28 02:58:09;;;;;;;2.91;0.69;;;;;;;4.36;75.23;100563.66;2016558;80;20353;-77
2021/03/28 03:01:18;;;;;;;1.74;0.69;;;;;;;4.32;75.09;100570.38;2016662;80;20439;-78
2021/03/28 03:04:32;;;;;;;3.76;0.82;;;;;;;4.24;75.31;100572.63;2016338;80;20378;-79
2021/03/28 03:07:57;;;;;;;3.26;1.75;;;;;;;4.17;75.31;100572.34;2016904;80;20215;-78
2021/03/28 03:11:23;;;;;;;4.70;1.00;;;;;;;4.08;75.23;100575.41;2016398;80;20304;-78
2021/03/28 03:14:39;;;;;;;5.25;0.79;;;;;;;4.04;75.59;100576.09;2016416;80;20321;-78
2021/03/28 03:18:07;;;;;;;3.21;0.88;;;;;;;3.96;75.55;100577.50;2016659;80;20734;-78
2021/03/28 03:21:30;;;;;;;1.35;0.65;;;;;;;3.86;75.63;100568.50;2016272;80;20782;-78
2021/03/28 03:25:07;;;;;;;2.10;0.75;;;;;;;3.79;75.60;100573.34;2016047;80;20349;-79
2021/03/28 03:28:46;;;;;;;4.07;0.70;;;;;;;3.73;75.87;100586.78;2011968;80;20325;-79
2021/03/28 03:32:00;;;;;;;2.38;0.70;;;;;;;3.68;75.89;100582.28;2016129;80;20342;-78
2021/03/28 03:35:17;;;;;;;1.73;0.60;;;;;;;3.61;76.23;100589.72;2016562;80;20640;-78
2021/03/28 03:38:38;;;;;;;3.24;0.90;;;;;;;3.56;76.77;100590.31;2015444;80;20345;-79
2021/03/28 03:42:09;;;;;;;4.10;0.86;;;;;;;3.52;76.99;100599.59;2015907;80;20336;-79
2021/03/28 03:45:32;;;;;;;3.78;0.77;;;;;;;3.46;76.99;100596.78;2016125;80;20317;-78
2021/03/28 03:49:11;;;;;;;4.89;1.19;;;;;;;3.40;77.14;100587.91;2016069;80;21003;-78
2021/03/28 03:52:25;;;;;;;2.27;1.10;;;;;;;3.40;77.37;100595.63;2015725;80;20348;-78
2021/03/28 03:55:43;;;;;;;2.90;1.14;;;;;;;3.34;77.27;100597.09;2015540;80;20393;-79
2021/03/28 03:59:09;;;;;;;3.16;0.89;;;;;;;3.29;77.11;100598.59;2017780;80;20378;-78
2021/03/28 04:02:33;;;;;;;3.61;0.69;;;;;;;3.24;76.92;100600.09;2017414;80;20702;-79
2021/03/28 04:05:40;;;;;;;4.84;0.88;;;;;;;3.21;76.85;100606.75;2017782;80;20322;-78
2021/03/28 04:08:55;;;;;;;2.78;0.82;;;;;;;3.19;77.02;100601.56;2017501;80;20298;-78
2021/03/28 04:12:27;;;;;;;3.80;0.93;;;;;;;3.18;77.09;100597.25;2017623;80;20345;-78
2021/03/28 04:15:44;;;;;;;3.55;0.94;;;;;;;3.12;77.11;100588.41;2016694;80;20874;-78
2021/03/28 04:19:10;;;;;;;4.57;1.31;;;;;;;3.07;76.94;100590.78;2018133;80;20512;-78
2021/03/28 04:22:50;;;;;;;2.81;1.11;;;;;;;3.07;77.24;100595.03;2017105;80;20466;-78
2021/03/28 04:26:07;;;;;;;2.38;1.21;;;;;;;2.99;77.93;100592.97;2017666;80;21225;-78
2021/03/28 04:29:11;;;;;;;4.35;1.36;;;;;;;2.91;78.14;100601.16;2017392;80;20329;-78
2021/03/28 04:32:45;;;;;;;2.88;0.94;;;;;;;2.84;78.27;100604.22;2017007;80;20336;-79
2021/03/28 04:35:56;;;;;;;3.66;1.10;;;;;;;2.79;78.18;100598.00;2016893;80;20337;-78
2021/03/28 04:39:31;;;;;;;2.39;0.74;;;;;;;2.76;77.92;100596.19;2016834;80;20320;-79
2021/03/28 04:42:53;;;;;;;3.42;1.00;;;;;;;2.70;77.82;100593.34;2016756;80;20335;-78
2021/03/28 04:46:16;;;;;;;3.56;1.00;;;;;;;2.62;77.62;100599.78;2016837;80;20350;-79
2021/03/28 04:49:33;;;;;;;3.97;1.27;;;;;;;2.57;77.37;100585.91;2016983;80;20333;-79
2021/03/28 04:52:46;;;;;;;4.30;1.23;;;;;;;2.53;77.41;100594.25;2016911;80;20353;-77
2021/03/28 04:56:08;;;;;;;4.21;1.40;;;;;;;2.48;77.53;100601.69;2016561;80;20833;-78
2021/03/28 04:59:09;;;;;;;3.13;1.55;;;;;;;2.43;77.44;100598.94;2016659;80;20342;-78
2021/03/28 05:02:37;;;;;;;4.47;1.02;;;;;;;2.41;77.77;100613.38;2017503;80;21010;-79
2021/03/28 05:05:59;;;;;;;3.22;0.80;;;;;;;2.39;78.46;100614.97;2016764;80;20205;-78
2021/03/28 05:09:40;;;;;;;4.95;0.80;;;;;;;2.38;78.60;100617.47;2017511;80;20317;-79
2021/03/28 05:12:59;;;;;;;2.28;0.82;;;;;;;2.37;78.83;100619.16;2016792;80;20358;-79
2021/03/28 05:16:07;;;;;;;4.09;0.80;;;;;;;2.33;78.98;100627.47;2016895;80;20349;-79
2021/03/28 05:19:17;;;;;;;3.97;1.16;;;;;;;2.32;78.92;100628.28;2016546;80;20301;-79
2021/03/28 05:23:01;;;;;;;2.25;0.99;;;;;;;2.28;79.19;100631.50;2017147;80;20313;-80
2021/03/28 05:26:24;;;;;;;5.34;1.00;;;;;;;2.27;79.45;100636.56;2017208;80;20378;-78
2021/03/28 05:29:40;;;;;;;1.56;1.27;;;;;;;2.29;79.81;100632.38;2017691;80;20333;-79
2021/03/28 05:33:03;;;;;;;3.72;1.60;;;;;;;2.29;80.01;100629.81;2016783;80;20310;-78
2021/03/28 05:36:12;;;;;;;2.85;0.96;;;;;;;2.30;80.06;100634.16;2021387;80;20393;-78
2021/03/28 05:39:38;;;;;;;2.50;0.85;;;;;;;2.32;79.75;100637.66;2016541;80;20332;-78
2021/03/28 05:42:55;;;;;;;3.30;1.05;;;;;;;2.36;79.43;100625.09;2016860;80;20358;-78
2021/03/28 05:46:28;;;;;;;4.36;1.16;;;;;;;2.40;79.37;100629.56;2016752;80;20802;-78
2021/03/28 05:49:47;;;;;;;3.42;1.00;;;;;;;2.45;79.41;100634.88;2014033;80;20313;-78
2021/03/28 05:53:27;;;;;;;2.91;1.14;;;;;;;2.53;79.27;100628.47;2016656;80;20955;-77
2021/03/28 05:56:42;;;;;;;2.46;0.82;;;;;;;2.61;79.20;100622.00;2016847;80;20332;-79
2021/03/28 06:00:11;;;;;;;3.58;1.02;;;;;;;2.66;79.48;100635.91;2016826;80;20192;-77
2021/03/28 06:03:40;;;;;;;5.24;1.24;;;;;;;2.68;79.74;100648.78;2023230;80;20309;-81
2021/03/28 06:07:12;;;;;;;4.25;1.00;;;;;;;2.76;79.87;100667.13;2025337;80;20160;-79
2021/03/28 06:10:32;;;;;;;4.35;1.14;;;;;;;2.81;79.98;100665.63;2021096;80;20176;-78
2021/03/28 06:13:58;;;;;;;3.66;0.82;;;;;;;2.85;80.18;100670.97;2016975;80;20372;-78
2021/03/28 06:17:23;;;;;;;4.81;1.00;;;;;;;2.87;80.52;100682.22;2014335;80;20336;-78
2021/03/28 06:20:50;;;;;;;1.24;0.94;;;;;;;2.90;80.47;100687.47;2016618;80;20340;-78
2021/03/28 06:24:10;;;;;;;1.50;0.85;;;;;;;2.96;80.12;100692.00;2016000;80;20495;-78
2021/03/28 06:27:34;;;;;;;3.67;0.96;;;;;;;2.95;80.13;100706.53;2016575;80;20342;-79
2021/03/28 06:31:03;;;;;;;3.11;0.90;;;;;;;2.94;79.83;100703.91;2015942;80;20329;-78
2021/03/28 06:34:38;;;;;;;4.15;0.91;;;;;;;2.94;79.55;100707.34;2013948;80;20333;-79
2021/03/28 06:37:52;;;;;;;2.92;0.80;;;;;;;2.96;79.23;100707.41;2014528;80;20205;-78
2021/03/28 06:41:06;;;;;;;1.26;0.75;;;;;;;3.04;79.20;100711.19;2015419;80;20184;-77
2021/03/28 06:44:34;;;;;;;5.51;1.38;;;;;;;3.61;78.22;100720.72;2014643;80;20745;-77
2021/03/28 06:48:20;;;;;;;3.10;0.84;;;;;;;4.54;76.27;100724.72;2007287;80;20403;-77
2021/03/28 06:51:27;;;;;;;3.34;1.15;;;;;;;5.25;74.59;100718.09;2003897;80;20410;-78
2021/03/28 06:54:54;;;;;;;4.64;1.84;;;;;;;5.64;73.15;100710.09;2005153;80;20378;-79
2021/03/28 06:58:17;;;;;;;4.35;1.17;;;;;;;6.01;72.15;100714.88;2006325;80;20327;-79
2021/03/28 07:01:21;;;;;;;4.94;1.58;;;;;;;6.45;70.59;100715.50;2005510;78;22094;-80
2021/03/28 07:04:53;;;;;;;2.72;1.36;;;;;;;6.70;68.97;100717.22;2010932;80;20352;-80
2021/03/28 07:08:07;;;;;;;4.75;1.73;;;;;;;6.84;67.91;100711.69;2007609;80;20852;-76
2021/03/28 07:11:27;;;;;;;3.70;1.29;;;;;;;7.01;66.31;100708.75;2003330;80;20868;-75
2021/03/28 07:14:55;;;;;;;6.21;1.60;;;;;;;7.33;65.40;100710.56;2007254;80;21342;-76
2021/03/28 07:18:16;;;;;;;6.03;1.42;;;;;;;7.57;63.70;100711.31;2004926;79;21073;-76
2021/03/28 07:21:27;;;;;;;6.38;1.77;;;;;;;7.93;62.80;100722.66;2009774;80;20776;-76
2021/03/28 07:25:12;;;;;;;5.93;1.83;;;;;;;8.26;61.27;100727.81;2014239;80;20345;-82
2021/03/28 07:28:51;;;;;;;5.46;1.45;;;;;;;8.57;59.97;100733.00;2013840;80;20321;-80
2021/03/28 07:32:44;;;;;;;4.09;1.34;;;;;;;8.96;59.81;100734.81;2013777;77;20231;-78
2021/03/28 07:36:01;;;;;;;9.65;2.01;;;;;;;9.35;59.35;100747.81;2021266;80;20632;-79
2021/03/28 07:39:33;;;;;;;6.04;1.63;;;;;;;9.68;58.20;100724.31;2024287;80;20214;-78
2021/03/28 07:43:01;;;;;;;5.97;2.06;;;;;;;10.06;56.97;100730.28;2020822;80;20203;-78
2021/03/28 07:46:08;;;;;;;4.74;1.17;;;;;;;10.28;54.80;100729.88;2019881;77;42199;-83
2021/03/28 07:49:32;;;;;;;4.11;1.99;;;;;;;10.50;53.75;100731.13;2021459;80;20167;-81
2021/03/28 07:53:11;;;;;;;5.09;1.92;;;;;;;10.67;53.57;100739.19;2019842;80;20229;-80
2021/03/28 07:56:36;;;;;;;7.70;1.91;;;;;;;10.87;53.45;100723.94;2016701;80;21232;-75
2021/03/28 08:00:39;;;;;;;4.63;1.61;;;;;;;11.22;51.92;100729.66;2019703;79;20199;-74
2021/03/28 08:04:04;;;;;;;5.99;1.42;;;;;;;11.49;50.64;100729.19;2015347;77;22137;-78
2021/03/28 08:07:35;;;;;;;5.00;1.54;;;;;;;11.76;50.57;100723.44;2015344;80;20184;-75
2021/03/28 08:10:58;;;;;;;5.36;1.10;;;;;;;12.04;48.76;100727.28;2018470;79;20290;-79
2021/03/28 08:14:26;;;;;;;2.83;1.10;;;;;;;12.16;48.42;100710.91;2019955;80;20180;-76
2021/03/28 08:17:47;;;;;;;5.75;1.30;;;;;;;12.42;46.82;100713.78;2019095;77;21987;-78
2021/03/28 08:20:57;;;;;;;3.22;0.99;;;;;;;12.75;46.01;100713.19;2024149;80;20163;-79
2021/03/28 08:24:20;;;;;;;4.69;1.00;;;;;;;13.11;45.15;100702.19;2021616;80;20745;-78
2021/03/28 08:27:58;;;;;;;3.14;1.00;;;;;;;13.43;44.67;100711.06;2027428;80;20183;-79
2021/03/28 08:31:33;;;;;;;4.13;1.07;;;;;;;13.74;42.90;100706.88;2029529;80;20195;-78
2021/03/28 08:34:47;;;;;;;5.40;1.05;;;;;;;13.93;42.85;100699.09;2022272;80;20164;-80
2021/03/28 08:37:48;;;;;;;4.54;0.90;;;;;;;13.91;43.16;100705.19;2026100;80;20179;-81
2021/03/28 08:41:14;;;;;;;4.15;1.13;;;;;;;13.95;42.83;100708.66;2027723;80;20201;-80
2021/03/28 08:44:27;;;;;;;4.76;0.95;;;;;;;14.07;42.84;100711.31;2023554;80;20180;-80
2021/03/28 08:48:11;;;;;;;4.32;1.27;;;;;;;14.13;41.71;100713.94;2020582;77;20288;-79
2021/03/28 08:51:31;;;;;;;3.47;1.00;;;;;;;14.37;41.62;100707.03;2015541;80;20206;-78
2021/03/28 08:55:02;;;;;;;7.36;0.95;;;;;;;14.66;41.28;100701.84;2009273;80;20238;-78
2021/03/28 08:58:15;;;;;;;3.66;0.93;;;;;;;14.80;39.83;100707.94;2010009;80;20241;-78
2021/03/28 09:01:34;;;;;;;4.46;1.16;;;;;;;14.97;40.46;100698.34;2008874;77;21607;-78
2021/03/28 09:04:38;;;;;;;5.34;1.01;;;;;;;15.16;38.83;100695.69;2009524;80;20204;-78
2021/03/28 09:07:48;;;;;;;6.40;0.89;;;;;;;15.21;39.60;100693.94;2010512;80;20180;-78
2021/03/28 09:11:23;;;;;;;5.84;1.13;;;;;;;15.33;37.62;100699.16;2010255;80;20737;-78
2021/03/28 09:14:58;;;;;;;5.85;1.02;;;;;;;15.47;37.38;100699.13;2010066;80;20196;-79
2021/03/28 09:18:26;;;;;;;5.44;0.90;;;;;;;15.20;38.12;100698.28;2015557;77;20741;-79
2021/03/28 09:22:10;;;;;;;2.67;0.76;;;;;;;14.94;38.07;100694.88;2015992;80;20293;-78
2021/03/28 09:25:47;;;;;;;2.59;0.55;;;;;;;14.75;37.12;100694.00;2014869;80;20235;-78
2021/03/28 09:29:36;;;;;;;2.01;0.56;;;;;;;14.58;37.00;100693.16;1999663;80;20236;-78
2021/03/28 09:32:56;;;;;;;2.48;0.57;;;;;;;14.51;36.98;100698.34;2010982;80;23355;-78
2021/03/28 09:36:25;;;;;;;3.84;0.70;;;;;;;14.63;36.42;100688.78;2015113;80;20176;-78
2021/03/28 09:39:37;;;;;;;;;;;;;;;14.40;35.97;100696.59;2016475;80;20590;-78
2021/03/28 09:42:51;;;;;;;2.96;0.64;;;;;;;14.17;35.91;100701.75;2015477;80;20059;-78
2021/03/28 09:46:25;;;;;;;2.72;0.65;;;;;;;13.93;36.65;100699.09;2014349;77;21514;-78
2021/03/28 09:52:32;;;;;;;2.60;0.44;;;;;;;14.47;37.44;100712.28;2066385;77;20174;-78
2021/03/28 09:55:49;;;;;;;1.89;0.63;;;;;;;14.51;36.52;100710.53;2055490;78;20837;-78
2021/03/28 09:59:36;;;;;;;2.70;0.64;;;;;;;14.19;35.12;100710.50;2056096;78;20684;-79
2021/03/28 10:02:46;;;;;;;4.29;0.81;;;;;;;14.47;36.58;100701.84;2043015;76;20331;-77
2021/03/28 10:05:50;;;;;;;2.80;0.76;;;;;;;14.79;35.40;100711.44;2039938;79;20214;-78
2021/03/28 10:09:10;;;;;;;2.92;0.60;;;;;;;14.90;35.58;100706.19;2040610;79;20938;-79
2021/03/28 10:12:27;;;;;;;2.56;0.84;;;;;;;15.20;36.46;100692.19;2040608;79;20176;-79
2021/03/28 10:15:29;;;;;;;4.06;0.74;;;;;;;15.46;35.18;100686.91;2042305;76;21432;-78
2021/03/28 10:18:58;;;;;;;5.95;0.75;;;;;;;15.57;34.57;100690.31;2045213;79;20179;-76
2021/03/28 10:22:20;;;;;;;4.43;1.24;;;;;;;15.26;33.63;100690.44;2045330;79;20187;-79
2021/03/28 10:25:28;;;;;;;3.09;0.79;;;;;;;15.14;35.30;100687.00;2044884;79;20906;-78
2021/03/28 10:28:55;;;;;;;4.63;1.00;;;;;;;15.31;35.50;100691.31;2045926;79;20302;-78
2021/03/28 10:32:19;;;;;;;4.40;1.15;;;;;;;15.57;36.05;100691.19;2040764;76;23334;-78
2021/03/28 10:35:31;;;;;;;3.81;0.65;;;;;;;15.69;35.57;100682.47;2039390;79;20537;-78
2021/03/28 10:38:56;;;;;;;4.19;1.00;;;;;;;15.84;35.80;100689.38;2039543;79;20194;-78
2021/03/28 10:42:02;;;;;;;3.24;0.90;;;;;;;15.44;34.59;100686.91;2039783;79;20188;-78
2021/03/28 10:45:14;;;;;;;12.64;1.91;;;;;;;15.55;35.44;100682.47;2038032;79;20626;-78
2021/03/28 10:49:02;;;;;;;2.66;0.60;;;;;;;15.97;36.03;100683.19;2036433;79;20614;-77
2021/03/28 10:52:04;;;;;;;3.70;0.80;;;;;;;16.41;34.11;100682.91;2034031;79;20189;-78
2021/03/28 10:55:36;;;;;;;3.66;0.85;;;;;;;16.54;33.52;100678.44;2033999;79;20177;-78
2021/03/28 10:59:13;;;;;;;3.38;0.74;;;;;;;16.66;32.78;100675.69;2034320;79;20952;-77
2021/03/28 11:03:02;;;;;;;6.68;0.98;;;;;;;16.77;32.57;100687.00;2035241;76;20181;-77
2021/03/28 11:06:31;;;;;;;2.24;0.70;;;;;;;16.86;32.83;100679.03;2032734;79;20231;-77
2021/03/28 11:09:51;;;;;;;;;;;;;;;17.15;32.52;100665.63;2036668;79;20282;-77
2021/03/28 11:13:02;;;;;;;3.24;0.60;;;;;;;17.24;31.84;100666.44;2036743;79;20068;-77
2021/03/28 11:16:13;;;;;;;5.16;0.96;;;;;;;17.02;31.70;100650.03;2035545;76;20165;-77
2021/03/28 11:19:52;;;;;;;2.91;0.70;;;;;;;17.11;31.20;100652.56;2036635;79;20582;-77
2021/03/28 11:23:04;;;;;;;3.76;0.80;;;;;;;17.29;32.28;100654.13;2036239;79;20220;-77
2021/03/28 11:26:45;;;;;;;3.60;0.68;;;;;;;17.47;32.97;100646.91;2036453;79;21322;-77
2021/03/28 11:30:36;;;;;;;2.94;0.88;;;;;;;17.70;31.29;100637.88;2021255;79;20287;-77
2021/03/28 11:33:44;;;;;;;3.55;0.85;;;;;;;17.77;31.32;100631.63;2020896;79;20182;-77
2021/03/28 11:36:55;;;;;;;4.75;0.94;;;;;;;17.75;31.28;100633.41;2036783;79;20229;-78
2021/03/28 11:40:17;;;;;;;3.96;1.01;;;;;;;17.91;31.23;100621.81;2035745;79;20172;-72
2021/03/28 11:43:31;;;;;;;7.43;1.60;;;;;;;17.91;31.90;100623.56;2035521;79;20221;-70
2021/03/28 11:46:36;;;;;;;3.60;1.05;;;;;;;17.79;30.55;100630.75;2034519;76;20247;-70
2021/03/28 11:50:15;;;;;;;4.32;1.16;;;;;;;17.72;32.06;100639.59;2036016;79;20177;-70
2021/03/28 11:53:32;;;;;;;5.46;0.77;;;;;;;17.53;31.04;100636.31;2035628;79;21304;-71
2021/03/28 11:56:40;;;;;;;4.01;0.90;;;;;;;17.39;32.13;100630.34;2036036;79;20172;-78
2021/03/28 11:59:51;;;;;;;3.83;1.33;;;;;;;17.56;32.88;100631.88;2036245;79;20772;-78
2021/03/28 12:03:21;;;;;;;3.00;0.90;;;;;;;17.55;32.22;100627.53;2035707;76;22212;-78
2021/03/28 12:06:22;;;;;;;2.94;0.91;;;;;;;17.76;32.70;100630.75;2037152;79;20215;-80
2021/03/28 12:09:31;;;;;;;5.70;1.24;;;;;;;17.80;32.45;100629.84;2038974;79;20835;-79
2021/03/28 12:12:57;;;;;;;4.59;1.06;;;;;;;17.98;32.51;100633.13;2038436;79;20169;-79
2021/03/28 12:16:05;;;;;;;2.13;0.86;;;;;;;18.10;31.38;100630.28;2034828;76;20820;-78
2021/03/28 12:19:20;;;;;;;3.01;0.77;;;;;;;18.01;32.17;100619.91;2033946;79;20161;-79
2021/03/28 12:22:44;;;;;;;3.85;0.90;;;;;;;18.25;31.69;100605.50;2031576;79;20209;-74
2021/03/28 12:26:04;;;;;;;3.74;0.90;;;;;;;18.46;31.30;100591.13;2030025;79;20213;-70
2021/03/28 12:29:24;;;;;;;3.45;0.86;;;;;;;18.61;30.66;100607.50;2030727;79;20578;-68
2021/03/28 12:32:54;;;;;;;4.63;0.70;;;;;;;18.33;29.96;100601.88;2034201;77;22950;-68
2021/03/28 12:36:08;;;;;;;3.79;0.90;;;;;;;18.30;30.41;100594.00;2035706;79;20165;-68
2021/03/28 12:39:13;;;;;;;4.21;1.02;;;;;;;18.31;30.14;100584.38;2036632;79;20164;-76
2021/03/28 12:42:20;;;;;;;7.75;1.10;;;;;;;18.45;30.50;100585.00;2036778;79;20333;-76
2021/03/28 12:45:32;;;;;;;2.44;0.88;;;;;;;18.40;29.58;100579.81;2034881;76;20223;-76
2021/03/28 12:48:37;;;;;;;5.20;1.21;;;;;;;18.28;30.03;100568.66;2031632;79;20241;-76
2021/03/28 12:51:42;;;;;;;3.86;0.90;;;;;;;18.18;30.92;100562.69;2031249;79;20203;-77
2021/03/28 12:54:50;;;;;;;3.92;0.77;;;;;;;18.14;29.72;100561.00;2031013;79;20356;-76
2021/03/28 12:57:54;;;;;;;4.09;0.84;;;;;;;18.23;31.28;100565.22;2030682;79;20194;-75
2021/03/28 13:01:01;;;;;;;4.05;0.76;;;;;;;18.22;30.72;100559.09;2034287;76;20623;-76
2021/03/28 13:04:17;;;;;;;3.60;1.08;;;;;;;18.45;30.74;100563.97;2041829;79;20766;-76
2021/03/28 13:07:48;;;;;;;2.67;0.86;;;;;;;18.39;30.14;100554.44;2041551;79;20216;-74
2021/03/28 13:10:58;;;;;;;3.63;0.89;;;;;;;18.30;29.52;100553.69;2041422;79;20594;-75
2021/03/28 13:14:00;;;;;;;4.56;0.89;;;;;;;18.45;30.08;100553.44;2040792;79;20265;-76
2021/03/28 13:17:02;;;;;;;2.44;0.81;;;;;;;18.55;30.33;100555.03;2038435;77;20739;-75
2021/03/28 13:20:12;;;;;;;3.58;0.84;;;;;;;18.64;29.87;100546.97;2036712;79;20864;-76
2021/03/28 13:23:21;;;;;;;5.13;0.90;;;;;;;18.66;30.35;100541.69;2036060;79;20173;-76
2021/03/28 13:26:30;;;;;;;3.33;0.80;;;;;;;18.77;29.93;100544.13;2036689;79;20194;-75
2021/03/28 13:29:36;;;;;;;5.82;0.85;;;;;;;18.84;29.65;100540.47;2036198;79;20181;-75
2021/03/28 13:32:39;;;;;;;3.61;0.89;;;;;;;18.86;29.26;100541.31;2031150;77;20372;-76
2021/03/28 13:35:41;;;;;;;2.96;0.96;;;;;;;18.81;29.27;100548.41;2030862;79;20197;-74
2021/03/28 13:39:07;;;;;;;3.67;0.90;;;;;;;18.83;29.16;100547.50;2031634;79;20251;-74
2021/03/28 13:42:19;;;;;;;4.97;0.95;;;;;;;18.78;29.02;100543.22;2031345;79;20207;-74
2021/03/28 13:45:27;;;;;;;2.86;0.70;;;;;;;18.65;28.91;100538.19;2030235;77;25179;-77
2021/03/28 13:48:28;;;;;;;5.13;0.82;;;;;;;18.76;29.89;100539.75;2035302;79;20210;-76
2021/03/28 13:51:31;;;;;;;4.00;0.80;;;;;;;18.87;29.46;100530.75;2036769;79;20176;-78
2021/03/28 13:54:34;;;;;;;4.04;0.93;;;;;;;18.94;29.76;100534.13;2037193;79;20200;-76
2021/03/28 13:57:42;;;;;;;5.36;0.81;;;;;;;18.86;27.97;100536.06;2037621;79;20274;-76
2021/03/28 14:00:48;;;;;;;3.84;0.70;;;;;;;18.84;28.22;100522.91;2037617;76;21389;-77
2021/03/28 14:03:56;;;;;;;6.45;1.16;;;;;;;18.73;28.24;100531.94;2041583;79;20190;-75
2021/03/28 14:07:17;;;;;;;;;;;;;;;18.69;27.76;100532.00;2041558;79;20186;-74
2021/03/28 14:10:33;;;;;;;2.24;1.00;;;;;;;18.68;28.66;100532.03;2039115;79;20056;-75
2021/03/28 14:13:37;;;;;;;3.95;1.08;;;;;;;18.78;29.17;100533.56;2040148;79;20210;-74
2021/03/28 14:16:42;;;;;;;3.15;0.90;;;;;;;18.79;29.24;100534.44;2036511;77;20392;-74
2021/03/28 14:19:44;;;;;;;2.84;0.90;;;;;;;18.71;29.34;100551.25;2031163;79;20205;-73
2021/03/28 14:22:50;;;;;;;3.63;1.09;;;;;;;18.70;28.64;100548.66;2035107;79;21191;-70
2021/03/28 14:25:56;;;;;;;2.85;0.90;;;;;;;18.26;29.01;100538.88;2034279;79;20230;-68
2021/03/28 14:28:58;;;;;;;5.50;1.00;;;;;;;18.14;29.42;100542.63;2034235;79;20177;-68
2021/03/28 14:32:14;;;;;;;3.56;0.82;;;;;;;18.10;30.22;100541.78;2030317;77;22544;-67
2021/03/28 14:35:21;;;;;;;3.24;0.71;;;;;;;17.90;30.49;100535.09;2029001;79;20768;-67
2021/03/28 14:38:44;;;;;;;3.06;0.75;;;;;;;17.89;30.36;100530.75;2031062;79;20675;-68
2021/03/28 14:42:11;;;;;;;2.92;0.80;;;;;;;17.85;30.29;100529.94;2031300;79;20330;-67
2021/03/28 14:45:28;;;;;;;3.59;0.91;;;;;;;17.89;30.87;100534.25;2030068;77;22381;-68
2021/03/28 14:48:45;;;;;;;3.58;0.70;;;;;;;17.97;30.28;100523.63;2039611;79;20173;-69
2021/03/28 14:52:12;;;;;;;4.16;0.94;;;;;;;17.98;30.58;100528.00;2036175;79;20198;-67
2021/03/28 14:55:32;;;;;;;4.07;1.01;;;;;;;17.85;29.52;100535.19;2036488;79;20327;-68
2021/03/28 14:59:05;;;;;;;2.25;0.74;;;;;;;17.77;31.06;100527.44;2035941;79;20173;-68
2021/03/28 15:02:34;;;;;;;6.14;1.14;;;;;;;17.94;31.42;100524.50;2035195;76;20198;-68
2021/03/28 15:06:02;;;;;;;5.16;1.17;;;;;;;18.19;30.68;100534.63;2036643;79;20270;-72
2021/03/28 15:09:24;;;;;;;5.50;1.15;;;;;;;18.27;30.68;100535.34;2035934;79;20238;-73
2021/03/28 15:12:39;;;;;;;4.10;0.70;;;;;;;18.29;30.16;100529.16;2035974;79;20198;-72
2021/03/28 15:15:55;;;;;;;4.66;0.86;;;;;;;18.30;30.35;100527.41;2036608;76;69674;-71
2021/03/28 15:19:00;;;;;;;5.38;1.04;;;;;;;18.50;30.33;100534.97;2044622;79;20202;-72
2021/03/28 15:22:26;;;;;;;3.79;0.80;;;;;;;18.67;29.58;100517.09;2042247;79;20664;-71
2021/03/28 15:25:34;;;;;;;3.90;0.84;;;;;;;18.88;29.10;100510.56;2040967;79;20198;-71
2021/03/28 15:28:41;;;;;;;4.45;0.90;;;;;;;18.99;28.90;100517.34;2040935;79;20252;-73
2021/03/28 15:31:49;;;;;;;4.36;0.77;;;;;;;18.91;29.03;100519.28;2037808;77;21861;-76
2021/03/28 15:35:16;;;;;;;4.47;1.10;;;;;;;18.72;28.43;100517.91;2036929;79;20241;-76
2021/03/28 15:38:39;;;;;;;3.13;0.89;;;;;;;18.53;28.66;100527.00;2036143;79;20173;-76